Time;durP1;ratioP1;P1;durP2;ratioP2;P2;SDS_P1;SDS_P2;PMS_P1;PMS_P2;Temp;Humidity;BMP_temperature;BMP_pressure;BME280_temperature;BME280_humidity;BME280_pressure;Samples;Min_cycle;Max_cycle;Signal;HPM_P1;HPM_P2
2022/07/17 00:00:28;;;;;;;0.30;0.30;;;16.60;99.90;17.30;102539.00;;;;5061848;28;20556;-63
2022/07/17 00:03:29;;;;;;;0.30;0.30;;;16.60;99.90;17.50;102536.00;;;;5034788;28;20537;-63
2022/07/17 00:06:30;;;;;;;0.30;0.30;;;16.60;99.90;17.40;102515.00;;;;5035612;28;20182;-63
2022/07/17 00:09:31;;;;;;;0.30;0.30;;;16.70;99.90;17.70;102551.00;;;;5051161;28;20643;-63
2022/07/17 00:12:35;;;;;;;0.30;0.30;;;16.70;99.90;17.60;102543.00;;;;5035405;28;20198;-63
2022/07/17 00:15:36;;;;;;;0.30;0.30;;;16.70;99.90;17.70;102540.00;;;;5035526;28;20202;-63
2022/07/17 00:18:37;;;;;;;0.30;0.30;;;16.70;99.90;18.00;102559.00;;;;5050854;28;20183;-63
2022/07/17 00:21:38;;;;;;;0.53;0.53;;;16.90;99.90;17.10;102543.00;;;;5050844;28;20185;-63
2022/07/17 00:24:39;;;;;;;0.20;0.20;;;16.90;99.90;16.80;102542.00;;;;5051082;28;20681;-63
2022/07/17 00:27:42;;;;;;;0.20;0.20;;;16.60;99.90;17.70;102542.00;;;;5034121;28;20183;-63
2022/07/17 00:30:48;;;;;;;0.30;0.30;;;16.80;99.90;18.30;102565.00;;;;5035239;28;20626;-63
2022/07/17 00:33:39;;;;;;;0.40;0.40;;;17.10;99.90;18.40;102562.00;;;;5050633;28;20273;-63
2022/07/17 00:36:40;;;;;;;0.20;0.20;;;17.40;99.90;18.40;102573.00;;;;5034193;28;20566;-63
2022/07/17 00:39:44;;;;;;;0.70;0.70;;;17.50;99.90;18.30;102549.00;;;;5050820;28;20193;-63
2022/07/17 00:42:52;;;;;;;0.30;0.30;;;17.40;99.90;18.10;102539.00;;;;5050628;28;20226;-63
2022/07/17 00:45:57;;;;;;;0.30;0.30;;;17.30;99.90;17.80;102563.00;;;;5035179;28;20576;-63
2022/07/17 00:49:02;;;;;;;0.30;0.30;;;17.00;99.90;17.10;102541.00;;;;5050079;28;20171;-63
2022/07/17 00:52:08;;;;;;;0.30;0.30;;;16.70;99.90;17.20;102539.00;;;;5034684;28;20234;-63
2022/07/17 00:55:16;;;;;;;0.30;0.30;;;16.50;99.90;16.50;102520.00;;;;5033862;28;20261;-63
2022/07/17 00:58:06;;;;;;;0.30;0.30;;;16.30;99.90;16.70;102490.00;;;;5050198;28;20179;-62
2022/07/17 01:00:54;;;;;;;0.33;0.33;;;16.10;99.90;16.70;102539.00;;;;5049917;28;20178;-63
2022/07/17 01:03:55;;;;;;;0.30;0.30;;;16.10;99.90;16.70;102539.00;;;;5050140;28;20271;-63
2022/07/17 01:06:59;;;;;;;0.30;0.30;;;16.20;99.90;17.30;102539.00;;;;5034674;28;20240;-63
2022/07/17 01:10:02;;;;;;;0.30;0.30;;;16.20;99.90;16.90;102532.00;;;;5034616;28;20184;-63
2022/07/17 01:12:53;;;;;;;0.30;0.30;;;16.30;99.90;17.30;102527.00;;;;5034465;28;20324;-63
2022/07/17 01:15:56;;;;;;;0.30;0.30;;;16.30;99.90;17.30;102532.00;;;;5034398;28;20502;-63
2022/07/17 01:18:59;;;;;;;0.33;0.33;;;16.40;99.90;16.80;102517.00;;;;5049664;28;20635;-63
2022/07/17 01:22:00;;;;;;;0.40;0.40;;;16.30;99.90;16.80;102494.00;;;;5049668;28;20222;-63
2022/07/17 01:25:03;;;;;;;0.30;0.30;;;16.10;99.90;16.60;102511.00;;;;5034089;28;20179;-63
2022/07/17 01:27:52;;;;;;;0.40;0.40;;;16.00;99.90;16.40;102501.00;;;;5034305;28;20232;-63
2022/07/17 01:30:57;;;;;;;0.40;0.40;;;15.90;99.90;17.00;102506.00;;;;5049732;28;20232;-63
2022/07/17 01:34:01;;;;;;;0.30;0.30;;;16.10;99.90;16.80;102506.00;;;;5033990;28;20536;-63
2022/07/17 01:37:06;;;;;;;0.47;0.47;;;16.20;99.90;16.70;102505.00;;;;5049705;28;20174;-62
2022/07/17 01:40:09;;;;;;;0.40;0.40;;;16.00;99.90;17.10;102509.00;;;;5033587;28;20185;-63
2022/07/17 01:43:14;;;;;;;0.40;0.40;;;16.20;99.90;17.10;102504.00;;;;5033779;28;20200;-63
2022/07/17 01:46:18;;;;;;;0.40;0.40;;;16.30;99.90;17.10;102505.00;;;;5049573;28;20170;-63
2022/07/17 01:49:27;;;;;;;0.40;0.40;;;16.30;99.90;17.10;102502.00;;;;5032502;28;20207;-63
2022/07/17 01:52:27;;;;;;;0.40;0.40;;;16.30;99.90;17.10;102500.00;;;;5044766;28;20548;-63
2022/07/17 01:55:32;;;;;;;0.33;0.33;;;16.30;99.90;17.10;102500.00;;;;5049074;28;20172;-63
2022/07/17 01:58:33;;;;;;;0.40;0.40;;;16.30;99.90;17.30;102495.00;;;;5033787;28;20537;-63
2022/07/17 02:01:21;;;;;;;0.40;0.40;;;16.40;99.90;17.10;102497.00;;;;5033655;28;20181;-63
2022/07/17 02:04:22;;;;;;;0.40;0.40;;;16.40;99.90;17.30;102494.00;;;;5033616;28;20192;-63
2022/07/17 02:07:23;;;;;;;0.40;0.40;;;16.40;99.90;17.10;102493.00;;;;5048965;28;20267;-63
2022/07/17 02:10:42;;;;;;;0.80;0.80;;;16.30;99.90;17.20;102492.00;;;;5033157;28;20182;-63
2022/07/17 02:13:36;;;;;;;0.40;0.40;;;16.40;99.90;17.20;102507.00;;;;5048813;28;20209;-63
2022/07/17 02:16:37;;;;;;;0.40;0.40;;;16.40;99.90;16.80;102479.00;;;;5049062;28;20243;-62
2022/07/17 02:19:40;;;;;;;0.40;0.40;;;16.20;99.90;16.90;102487.00;;;;5048889;28;20226;-62
2022/07/17 02:23:02;;;;;;;0.50;0.50;;;16.20;99.90;16.80;102502.00;;;;5033346;28;20197;-63
2022/07/17 02:26:09;;;;;;;0.50;0.50;;;16.10;99.90;16.70;102467.00;;;;5032302;28;20189;-62
2022/07/17 02:32:57;;;;;;;0.40;0.40;;;15.90;99.90;16.40;102495.00;;;;5032722;28;20264;-63
2022/07/17 02:36:01;;;;;;;0.40;0.40;;;15.80;99.90;16.60;102487.00;;;;5033212;28;20186;-63
2022/07/17 02:39:02;;;;;;;0.40;0.40;;;15.90;99.90;16.80;102448.00;;;;5048375;28;20181;-62
2022/07/17 02:42:20;;;;;;;0.50;0.50;;;15.90;99.90;16.70;102472.00;;;;5048417;28;20182;-62
2022/07/17 02:45:27;;;;;;;0.90;0.90;;;15.90;99.90;16.00;102493.00;;;;5048506;28;20276;-62
2022/07/17 02:48:17;;;;;;;0.40;0.40;;;15.80;99.90;15.60;102481.00;;;;5033475;28;20209;-62
2022/07/17 02:54:48;;;;;;;0.40;0.40;;;15.40;99.90;15.80;102493.00;;;;5033165;28;20236;-62
2022/07/17 02:57:49;;;;;;;0.40;0.40;;;15.40;99.90;15.90;102491.00;;;;5033051;28;20210;-63
2022/07/17 03:00:53;;;;;;;0.40;0.40;;;15.30;99.90;16.30;102488.00;;;;5033226;28;20233;-62
2022/07/17 03:03:54;;;;;;;0.40;0.40;;;15.50;99.90;16.20;102492.00;;;;5033100;28;20208;-62
2022/07/17 03:07:08;;;;;;;0.40;0.40;;;15.50;99.90;15.70;102501.00;;;;5048313;28;20185;-62
2022/07/17 03:10:12;;;;;;;0.40;0.40;;;15.40;99.90;16.00;102495.00;;;;5032813;28;20313;-62
2022/07/17 03:13:12;;;;;;;0.40;0.40;;;15.40;99.90;16.10;102498.00;;;;5032789;28;20262;-62
2022/07/17 03:16:18;;;;;;;0.50;0.50;;;15.50;99.90;15.50;102495.00;;;;5032933;28;20332;-62
2022/07/17 03:19:19;;;;;;;1.07;1.00;;;15.20;99.90;15.30;102504.00;;;;5050025;28;20189;-63
2022/07/17 03:22:23;;;;;;;0.47;0.47;;;15.10;99.90;16.00;102504.00;;;;5036277;28;20185;-62
2022/07/17 03:25:26;;;;;;;0.90;0.90;;;15.20;99.90;15.70;102457.00;;;;5036416;28;20179;-62
2022/07/17 03:28:28;;;;;;;0.50;0.50;;;15.20;99.90;15.30;102491.00;;;;5052023;28;20184;-62
2022/07/17 03:31:18;;;;;;;0.50;0.50;;;15.10;99.90;15.40;102490.00;;;;5036299;28;20179;-62
2022/07/17 03:34:19;;;;;;;0.50;0.50;;;15.00;99.90;15.60;102458.00;;;;5036669;28;20199;-62
2022/07/17 03:37:21;;;;;;;0.40;0.40;;;15.00;99.90;15.50;102475.00;;;;5035928;28;20181;-62
2022/07/17 03:40:24;;;;;;;0.40;0.40;;;15.00;99.90;15.40;102499.00;;;;5051859;28;20239;-63
2022/07/17 03:43:15;;;;;;;0.50;0.50;;;14.90;99.90;15.40;102505.00;;;;5036158;28;20233;-62
2022/07/17 03:46:16;;;;;;;0.50;0.50;;;14.80;99.90;15.70;102508.00;;;;5051565;28;20180;-63
2022/07/17 03:49:19;;;;;;;0.50;0.50;;;14.90;99.90;15.50;102505.00;;;;5043762;28;20185;-62
2022/07/17 03:52:23;;;;;;;0.50;0.50;;;15.20;99.90;15.60;102506.00;;;;5015185;28;20407;-62
2022/07/17 03:55:24;;;;;;;0.50;0.50;;;15.00;99.90;15.90;102477.00;;;;5016156;28;20639;-62
2022/07/17 03:58:27;;;;;;;0.50;0.50;;;15.10;99.90;16.00;102475.00;;;;5016402;28;20187;-62
2022/07/17 04:01:28;;;;;;;0.50;0.50;;;15.20;99.90;15.40;102497.00;;;;5015310;28;20663;-62
2022/07/17 04:04:35;;;;;;;0.40;0.40;;;15.20;99.90;15.70;102500.00;;;;5016126;28;20632;-62
2022/07/17 04:07:38;;;;;;;0.50;0.50;;;15.00;99.90;16.10;102506.00;;;;5033153;28;20276;-62
2022/07/17 04:10:45;;;;;;;0.50;0.50;;;15.10;99.90;16.10;102510.00;;;;5015995;28;20645;-62
2022/07/17 04:13:46;;;;;;;0.50;0.50;;;15.30;99.90;15.70;102479.00;;;;5014630;28;20212;-62
2022/07/17 04:16:51;;;;;;;0.40;0.40;;;15.20;99.90;15.50;102494.00;;;;5014498;28;20192;-62
2022/07/17 04:19:52;;;;;;;0.50;0.50;;;14.90;99.90;16.10;102506.00;;;;5014411;28;20189;-63
2022/07/17 04:22:55;;;;;;;0.40;0.40;;;15.10;99.90;16.20;102510.00;;;;5015539;28;20646;-62
2022/07/17 04:25:55;;;;;;;0.50;0.50;;;15.40;99.90;16.20;102464.00;;;;5015729;28;20274;-62
2022/07/17 04:28:42;;;;;;;0.50;0.50;;;15.50;99.90;15.80;102507.00;;;;5015692;28;20188;-62
2022/07/17 04:31:42;;;;;;;0.50;0.50;;;15.30;99.90;15.90;102504.00;;;;5015461;28;20663;-62
2022/07/17 04:34:44;;;;;;;0.50;0.50;;;15.30;99.90;16.20;102504.00;;;;5014340;28;20197;-62
2022/07/17 04:38:06;;;;;;;0.50;0.50;;;15.30;99.90;16.60;102523.00;;;;5015501;28;20179;-62
2022/07/17 04:41:10;;;;;;;0.50;0.50;;;15.60;99.90;17.00;102526.00;;;;5014385;28;20623;-62
2022/07/17 04:44:11;;;;;;;0.50;0.50;;;16.00;99.90;17.60;102533.00;;;;5015109;28;20213;-63
2022/07/17 04:47:15;;;;;;;0.37;0.37;;;16.40;99.90;18.20;102538.00;;;;5015671;28;20229;-63
2022/07/17 04:50:18;;;;;;;0.30;0.30;;;16.90;99.90;17.50;102543.00;;;;5015152;28;20186;-63
2022/07/17 04:53:21;;;;;;;0.20;0.20;;;17.40;99.90;19.10;102557.00;;;;5013944;28;20543;-63
2022/07/17 04:56:22;;;;;;;0.20;0.20;;;17.70;99.90;20.70;102581.00;;;;5015079;28;20276;-63
2022/07/17 04:59:25;;;;;;;0.20;0.20;;;18.90;99.90;21.20;102614.00;;;;5014899;28;20184;-63
2022/07/17 05:02:29;;;;;;;0.20;0.20;;;19.80;99.90;22.20;102616.00;;;;4997082;28;20190;-63
2022/07/17 05:05:29;;;;;;;0.20;0.20;;;20.40;99.90;22.60;102638.00;;;;5015144;28;20653;-60
2022/07/17 05:08:34;;;;;;;0.10;0.10;;;20.90;99.90;23.90;102656.00;;;;5013791;28;20318;-61
2022/07/17 05:11:34;;;;;;;0.10;0.10;;;21.80;99.90;24.40;102675.00;;;;5014669;28;20211;-61
2022/07/17 05:14:37;;;;;;;0.10;0.10;;;22.80;99.90;23.90;102668.00;;;;5014919;28;20175;-61
2022/07/17 05:17:38;;;;;;;0.10;0.10;;;22.40;99.90;24.30;102674.00;;;;5014796;28;20179;-64
2022/07/17 05:21:00;;;;;;;0.10;0.10;;;23.00;99.90;25.70;102677.00;;;;5013901;28;20185;-63
2022/07/17 05:31:24;;;;;;;0.32;0.32;;;23.20;99.90;25.80;102712.00;;;;5031955;28;20192;-64
2022/07/17 05:34:15;;;;;;;0.10;0.10;;;23.90;99.90;26.70;102717.00;;;;5014210;28;20627;-64
2022/07/17 05:37:19;;;;;;;0.10;0.10;;;24.70;99.90;25.30;102669.00;;;;5013503;28;20237;-64
2022/07/17 05:40:25;;;;;;;0.10;0.10;;;24.60;99.90;24.90;102725.00;;;;5013600;28;20572;-64
2022/07/17 05:43:26;;;;;;;0.10;0.10;;;24.40;99.90;27.40;102725.00;;;;5013984;28;20206;-64
2022/07/17 05:46:17;;;;;;;0.25;0.25;;;24.90;99.90;27.20;102721.00;;;;4996842;28;20635;-64
2022/07/17 05:52:51;;;;;;;0.10;0.10;;;26.00;99.90;27.60;102708.00;;;;5014044;28;20222;-64
2022/07/17 05:55:54;;;;;;;0.10;0.10;;;26.20;99.90;28.00;102704.00;;;;5012729;28;20237;-64
2022/07/17 05:58:55;;;;;;;0.20;0.20;;;26.30;99.90;25.60;102735.00;;;;5012944;28;20187;-64
2022/07/17 06:01:59;;;;;;;0.10;0.10;;;25.40;99.90;25.40;102733.00;;;;5012719;28;20188;-63
2022/07/17 06:20:47;;;;;;;0.15;0.15;;;23.90;99.90;23.90;102729.00;;;;5012582;28;20192;-60
2022/07/17 06:24:31;;;;;;;0.10;0.10;;;22.60;99.90;27.10;102735.00;;;;5012792;28;20187;-63
2022/07/17 06:27:56;;;;;;;0.10;0.10;;;24.70;99.90;26.90;102713.00;;;;5012544;28;20190;-63
2022/07/17 06:31:01;;;;;;;0.00;0.00;;;25.60;99.90;25.90;102730.00;;;;5028805;28;20195;-63
2022/07/17 06:34:01;;;;;;;0.10;0.10;;;25.80;99.90;26.50;102736.00;;;;5013626;28;20231;-63
2022/07/17 06:37:08;;;;;;;0.10;0.10;;;25.90;99.90;27.20;102708.00;;;;5012562;28;20179;-63
2022/07/17 06:40:19;;;;;;;0.10;0.10;;;26.30;99.90;27.00;102731.00;;;;5000177;28;20199;-63
2022/07/17 06:43:22;;;;;;;0.10;0.10;;;26.60;99.90;25.40;102741.00;;;;5012628;28;20615;-63
2022/07/17 06:46:26;;;;;;;0.10;0.10;;;25.00;99.90;25.80;102741.00;;;;5013339;28;20179;-63
2022/07/17 06:49:29;;;;;;;0.10;0.10;;;25.20;99.90;27.20;102739.00;;;;5013625;28;20582;-63
2022/07/17 06:52:32;;;;;;;0.10;0.10;;;26.20;99.90;27.40;102737.00;;;;5013429;28;20209;-61
2022/07/17 06:55:51;;;;;;;0.28;0.28;;;26.30;99.90;28.50;102731.00;;;;5017121;28;20245;-61
2022/07/17 06:58:55;;;;;;;2.63;2.45;;;26.80;99.90;28.10;102731.00;;;;5016101;28;20183;-61
2022/07/17 07:01:56;;;;;;;0.10;0.10;;;27.50;99.90;31.90;102701.00;;;;5017088;28;20195;-64
2022/07/17 07:04:57;;;;;;;0.52;0.52;;;29.30;99.90;29.20;102730.00;;;;5017438;28;20206;-63
2022/07/17 07:08:01;;;;;;;0.10;0.10;;;29.70;97.00;31.70;102730.00;;;;5016900;28;20182;-64
2022/07/17 07:11:02;;;;;;;0.10;0.10;;;30.10;96.60;32.50;102733.00;;;;5015700;28;20647;-63
2022/07/17 07:13:53;;;;;;;0.00;0.00;;;30.50;95.60;31.80;102737.00;;;;5016876;28;20237;-64
2022/07/17 07:16:54;;;;;;;0.10;0.10;;;30.80;93.30;32.80;102712.00;;;;5015874;28;20710;-64
2022/07/17 07:19:58;;;;;;;0.10;0.10;;;31.20;92.30;34.10;102726.00;;;;5016971;28;20211;-64
2022/07/17 07:23:01;;;;;;;0.38;0.38;;;32.10;91.70;31.60;102738.00;;;;4999376;28;20286;-64
2022/07/17 07:26:02;;;;;;;0.10;0.10;;;31.30;90.30;29.40;102750.00;;;;5016780;28;20543;-64
2022/07/17 07:29:03;;;;;;;0.10;0.10;;;29.90;90.30;27.70;102766.00;;;;5015143;28;20578;-63
2022/07/17 07:32:05;;;;;;;0.32;0.32;;;27.30;93.30;30.20;102759.00;;;;4998895;28;20215;-64
2022/07/17 07:35:07;;;;;;;0.10;0.10;;;28.20;93.40;32.40;102756.00;;;;5016645;28;20705;-64
2022/07/17 07:38:13;;;;;;;8.60;0.73;;;30.00;92.20;24.70;102750.00;;;;5016503;28;20225;-64
2022/07/17 07:41:14;;;;;;;0.10;0.10;;;28.00;92.00;27.40;102745.00;;;;5016725;28;20222;-63
2022/07/17 07:44:18;;;;;;;0.10;0.10;;;26.20;95.00;27.80;102728.00;;;;5016504;28;20552;-63
2022/07/17 07:47:19;;;;;;;0.57;0.57;;;27.30;94.20;30.20;102761.00;;;;5015563;28;20176;-64
2022/07/17 07:50:23;;;;;;;0.10;0.10;;;27.80;95.10;26.80;102774.00;;;;5015399;28;20617;-63
2022/07/17 07:53:27;;;;;;;0.08;0.08;;;26.80;95.30;28.10;102758.00;;;;5016266;28;20199;-63
2022/07/17 07:56:30;;;;;;;0.10;0.10;;;28.10;94.90;30.80;102751.00;;;;5016173;28;20182;-64
2022/07/17 07:59:34;;;;;;;0.10;0.10;;;29.10;94.10;31.60;102725.00;;;;4998650;28;20237;-64
2022/07/17 08:02:39;;;;;;;0.10;0.10;;;29.60;93.50;32.30;102731.00;;;;5016070;28;20650;-64
2022/07/17 08:06:01;;;;;;;0.00;0.00;;;31.60;91.60;30.40;102737.00;;;;5014259;28;20191;-64
2022/07/17 08:08:47;;;;;;;0.10;0.10;;;30.20;91.20;33.20;102721.00;;;;5016150;28;20218;-64
2022/07/17 08:11:48;;;;;;;0.10;0.10;;;31.30;90.90;32.80;102726.00;;;;4998254;28;20175;-64
2022/07/17 08:14:49;;;;;;;0.10;0.10;;;31.90;88.90;29.50;102723.00;;;;5015864;28;20617;-64
2022/07/17 08:17:54;;;;;;;0.10;0.10;;;31.60;89.70;30.20;102738.00;;;;5015753;28;20650;-63
2022/07/17 08:20:57;;;;;;;0.10;0.10;;;29.00;91.50;31.30;102730.00;;;;5014532;28;20187;-64
2022/07/17 08:24:03;;;;;;;0.10;0.10;;;29.60;91.50;27.40;102739.00;;;;5014503;28;20206;-63
2022/07/17 08:27:42;;;;;;;0.10;0.10;;;28.00;91.10;29.40;102732.00;;;;5014693;28;20261;-63
2022/07/17 08:30:46;;;;;;;0.88;0.73;;;28.60;91.80;29.10;102712.00;;;;5015858;28;20175;-64
2022/07/17 08:33:35;;;;;;;0.15;0.15;;;27.90;92.60;29.20;102722.00;;;;5014084;28;20244;-64
2022/07/17 08:36:36;;;;;;;0.35;0.20;;;28.60;91.70;27.30;102722.00;;;;5014382;28;20191;-64
2022/07/17 08:39:30;;;;;;;0.10;0.10;;;28.90;91.10;28.50;102732.00;;;;5013860;28;20258;-64
2022/07/17 08:42:42;;;;;;;1.55;0.55;;;28.10;91.80;28.30;102742.00;;;;5014328;28;20314;-63
2022/07/17 08:45:46;;;;;;;0.10;0.10;;;27.70;91.90;27.80;102742.00;;;;5013964;28;20278;-64
2022/07/17 08:48:26;;;;;;;0.10;0.10;;;27.20;92.70;26.00;102738.00;;;;5014274;28;20172;-64
2022/07/17 08:51:11;;;;;;;0.10;0.10;;;26.50;92.80;29.20;102717.00;;;;5014267;28;20553;-64
2022/07/17 08:54:02;;;;;;;0.10;0.10;;;27.50;93.50;29.80;102724.00;;;;5014941;28;20556;-64
2022/07/17 08:57:03;;;;;;;0.10;0.10;;;28.30;92.40;26.30;102742.00;;;;5015414;28;20175;-64
2022/07/17 08:59:54;;;;;;;1.17;0.68;;;27.40;92.50;26.70;102752.00;;;;5013660;28;20199;-64
2022/07/17 09:03:00;;;;;;;0.10;0.10;;;25.80;94.50;30.00;102719.00;;;;5015229;28;20207;-64
2022/07/17 09:06:18;;;;;;;0.38;0.20;;;27.80;93.80;26.80;102736.00;;;;5014984;28;20207;-64
2022/07/17 09:09:13;;;;;;;0.10;0.10;;;27.10;92.20;28.70;102738.00;;;;5014472;28;20212;-64
2022/07/17 09:12:08;;;;;;;0.43;0.43;;;27.60;92.30;27.30;102746.00;;;;5013892;28;20214;-64
2022/07/17 09:15:18;;;;;;;0.10;0.10;;;27.00;93.10;28.30;102732.00;;;;4998537;28;20199;-64
2022/07/17 09:18:46;;;;;;;0.10;0.10;;;27.80;92.30;30.40;102737.00;;;;5013188;28;20186;-64
2022/07/17 09:22:10;;;;;;;0.20;0.20;;;28.40;92.80;31.10;102735.00;;;;5011429;28;20191;-64
2022/07/17 09:25:04;;;;;;;0.10;0.10;;;30.00;90.50;27.80;102715.00;;;;5014369;28;20245;-64
2022/07/17 09:28:08;;;;;;;0.20;0.20;;;28.50;90.50;25.00;102752.00;;;;5014563;28;20194;-63
2022/07/17 09:31:09;;;;;;;0.10;0.10;;;26.40;92.20;27.90;102759.00;;;;5013306;28;20249;-64
2022/07/17 09:34:16;;;;;;;0.10;0.10;;;26.40;93.50;27.20;102748.00;;;;5013236;28;20193;-64
2022/07/17 09:37:18;;;;;;;1.73;0.98;;;27.00;93.00;29.00;102720.00;;;;4997024;28;20726;-64
2022/07/17 09:43:47;;;;;;;0.47;0.47;;;27.60;92.40;29.60;102735.00;;;;5013225;28;20214;-64
2022/07/17 09:46:48;;;;;;;0.15;0.15;;;28.30;91.60;26.90;102753.00;;;;5013095;28;20268;-63
2022/07/17 09:49:52;;;;;;;0.52;0.52;;;26.60;93.40;28.30;102735.00;;;;5043201;28;20199;-64
2022/07/17 09:52:56;;;;;;;2.22;0.35;;;27.50;92.90;26.30;102752.00;;;;5013003;28;20186;-64
2022/07/17 09:56:03;;;;;;;0.10;0.10;;;27.00;92.70;27.90;102756.00;;;;5012794;28;20550;-64
2022/07/17 09:59:07;;;;;;;0.13;0.13;;;26.50;93.70;27.30;102747.00;;;;5000473;28;20205;-62
2022/07/17 10:02:09;;;;;;;0.40;0.40;;;27.10;92.50;25.20;102745.00;;;;5012776;28;20199;-64
2022/07/17 10:05:17;;;;;;;0.10;0.10;;;25.60;94.00;26.60;102747.00;;;;5013486;28;20588;-64
2022/07/17 10:08:29;;;;;;;2.63;1.58;;;26.10;94.30;25.90;102753.00;;;;5013647;28;20632;-64
2022/07/17 10:11:15;;;;;;;0.20;0.20;;;26.00;94.10;28.50;102744.00;;;;5044368;28;20206;-64
2022/07/17 10:14:10;;;;;;;0.10;0.10;;;26.90;94.30;29.10;102719.00;;;;5012693;28;20160;-65
2022/07/17 10:17:20;;;;;;;0.10;0.10;;;27.70;93.20;30.90;102717.00;;;;5012512;28;20249;-62
2022/07/17 10:20:06;;;;;;;0.10;0.10;;;29.00;92.60;31.30;102732.00;;;;5013060;28;20551;-63
2022/07/17 10:33:38;;;;;;;0.10;0.10;;;29.10;89.50;28.80;102732.00;;;;5111128;27;20597;-65
2022/07/17 10:36:43;;;;;;;0.13;0.13;;;28.80;90.50;29.60;102711.00;;;;5106381;28;20185;-65
2022/07/17 10:39:53;;;;;;;0.55;0.32;;;28.70;90.70;30.20;102704.00;;;;5106354;28;20199;-63
2022/07/17 10:43:05;;;;;;;0.10;0.10;;;29.50;89.90;30.50;102716.00;;;;5091192;28;20173;-63
2022/07/17 10:46:05;;;;;;;0.10;0.10;;;29.30;90.20;30.40;102719.00;;;;5090883;28;20223;-63
2022/07/17 10:49:03;;;;;;;0.40;0.40;;;29.40;90.10;30.40;102711.00;;;;5106372;28;20244;-63
2022/07/17 10:52:04;;;;;;;0.15;0.15;;;29.40;89.30;30.80;102691.00;;;;5089232;28;20196;-64
2022/07/17 10:55:20;;;;;;;1.25;0.98;;;29.50;87.70;31.10;102706.00;;;;5090463;28;20561;-64
2022/07/17 10:58:25;;;;;;;0.40;0.40;;;29.80;87.80;30.40;102711.00;;;;5089467;28;20178;-64
2022/07/17 11:02:03;;;;;;;0.10;0.10;;;29.70;86.30;31.70;102697.00;;;;5090365;28;20521;-65
2022/07/17 11:05:10;;;;;;;4.47;1.13;;;30.40;86.50;31.50;102684.00;;;;5089201;28;20254;-66
2022/07/17 11:08:14;;;;;;;0.20;0.20;;;30.70;85.30;31.60;102711.00;;;;5086595;28;20731;-64
2022/07/17 11:11:20;;;;;;;0.17;0.10;;;30.20;85.60;32.70;102710.00;;;;5106090;28;20177;-64
2022/07/17 11:14:21;;;;;;;0.10;0.10;;;31.00;83.50;33.30;102700.00;;;;5105878;28;20181;-65
2022/07/17 11:17:24;;;;;;;0.10;0.10;;;31.80;81.00;32.90;102694.00;;;;5105968;28;20246;-66
2022/07/17 11:20:29;;;;;;;0.30;0.30;;;31.80;80.10;30.30;102710.00;;;;5105776;28;20180;-64
2022/07/17 11:23:49;;;;;;;0.13;0.13;;;30.80;79.90;31.80;102666.00;;;;5105849;28;20270;-64
2022/07/17 11:26:53;;;;;;;5.47;1.15;;;31.20;80.10;27.70;102700.00;;;;5105734;28;20312;-64
2022/07/17 11:29:56;;;;;;;0.10;0.10;;;29.40;79.90;28.50;102683.00;;;;5089822;28;20230;-66
2022/07/17 11:33:03;;;;;;;1.48;1.38;;;27.50;85.20;30.80;102697.00;;;;5089422;28;20215;-64
2022/07/17 11:36:04;;;;;;;0.63;0.63;;;29.50;83.50;31.40;102693.00;;;;5105508;28;20539;-64
2022/07/17 11:39:15;;;;;;;0.10;0.10;;;30.90;82.50;33.70;102675.00;;;;5088301;28;20211;-64
2022/07/17 11:42:45;;;;;;;0.10;0.10;;;31.90;81.70;32.00;102675.00;;;;5103820;28;20184;-65
2022/07/17 11:45:48;;;;;;;0.10;0.10;;;32.60;78.50;31.10;102685.00;;;;5091814;28;20180;-64
2022/07/17 11:48:40;;;;;;;0.28;0.28;;;31.20;79.70;29.20;102697.00;;;;5075818;28;20162;-64
2022/07/17 11:51:43;;;;;;;0.43;0.43;;;29.00;80.40;31.20;102682.00;;;;5091675;28;22144;-64
2022/07/17 11:54:49;;;;;;;0.57;0.57;;;30.20;78.20;29.10;102704.00;;;;5091569;28;20665;-64
2022/07/17 11:57:54;;;;;;;0.20;0.20;;;29.90;76.60;28.00;102700.00;;;;5075626;28;20205;-64
2022/07/17 12:01:02;;;;;;;0.00;0.00;;;28.80;77.70;29.10;102692.00;;;;5075724;28;20257;-64
2022/07/17 12:04:03;;;;;;;0.32;0.32;;;28.00;76.40;27.80;102704.00;;;;5091212;28;20545;-64
2022/07/17 12:07:03;;;;;;;0.75;0.75;;;27.60;76.30;28.00;102701.00;;;;5075541;28;20185;-64
2022/07/17 12:10:15;;;;;;;0.82;0.82;;;27.20;78.90;27.70;102710.00;;;;5075626;28;20177;-64
2022/07/17 12:13:17;;;;;;;0.15;0.15;;;27.10;79.30;29.30;102672.00;;;;5075340;28;20202;-64
2022/07/17 12:16:07;;;;;;;0.50;0.50;;;27.80;80.90;29.10;102669.00;;;;5075438;28;20189;-64
2022/07/17 12:19:04;;;;;;;0.10;0.10;;;28.30;78.80;29.00;102691.00;;;;5090149;28;20169;-64
2022/07/17 12:21:58;;;;;;;0.40;0.40;;;27.90;80.10;28.20;102683.00;;;;5091141;28;20173;-64
2022/07/17 12:25:04;;;;;;;0.10;0.10;;;27.70;80.40;29.80;102680.00;;;;5075434;28;20576;-64
2022/07/17 12:28:16;;;;;;;0.25;0.20;;;28.20;81.60;29.00;102685.00;;;;5074050;28;20276;-64
2022/07/17 12:31:19;;;;;;;0.68;0.68;;;28.50;80.50;29.30;102669.00;;;;5075030;28;20550;-64
2022/07/17 12:34:20;;;;;;;0.10;0.10;;;28.30;81.90;29.80;102665.00;;;;5073971;28;20649;-64
2022/07/17 12:37:21;;;;;;;0.40;0.40;;;28.40;81.00;29.10;102666.00;;;;5074987;28;20185;-64
2022/07/17 12:40:16;;;;;;;0.88;0.88;;;28.30;81.90;27.30;102669.00;;;;5074984;28;20196;-64
2022/07/17 12:43:20;;;;;;;0.10;0.10;;;27.70;80.60;27.80;102665.00;;;;5075030;28;20219;-66
2022/07/17 12:46:24;;;;;;;0.20;0.20;;;26.90;82.10;27.70;102671.00;;;;5074749;28;20662;-64
2022/07/17 12:49:28;;;;;;;0.30;0.30;;;27.20;82.30;28.20;102668.00;;;;5074891;28;20671;-64
2022/07/17 12:52:36;;;;;;;1.20;0.40;;;27.30;82.30;28.20;102672.00;;;;5090540;28;20254;-64
2022/07/17 12:55:40;;;;;;;0.10;0.10;;;27.30;83.50;28.90;102635.00;;;;5073870;28;20667;-64
2022/07/17 12:58:41;;;;;;;0.30;0.20;;;27.50;81.90;29.70;102649.00;;;;5090392;28;20191;-64
2022/07/17 13:01:41;;;;;;;0.30;0.30;;;28.10;80.90;28.60;102627.00;;;;5074639;28;20184;-64
2022/07/17 13:05:03;;;;;;;0.70;0.70;;;28.10;80.90;28.40;102659.00;;;;5074620;28;20181;-64
2022/07/17 13:08:15;;;;;;;0.47;0.47;;;27.60;83.40;27.90;102651.00;;;;5074575;28;20178;-64
2022/07/17 13:11:04;;;;;;;0.10;0.10;;;27.20;83.80;27.80;102650.00;;;;5090148;28;20205;-64
2022/07/17 13:14:06;;;;;;;0.25;0.25;;;26.90;83.30;28.10;102639.00;;;;5074320;28;20174;-64
2022/07/17 13:16:52;;;;;;;0.47;0.47;;;26.90;83.00;27.50;102633.00;;;;5074156;28;20169;-64
2022/07/17 13:19:55;;;;;;;0.15;0.15;;;27.10;82.80;27.60;102627.00;;;;5089717;28;20244;-64
2022/07/17 13:23:02;;;;;;;1.45;1.30;;;26.80;82.30;27.40;102629.00;;;;5090070;28;20264;-64
2022/07/17 13:26:20;;;;;;;18.23;6.30;;;26.50;82.40;28.50;102613.00;;;;5072986;28;20188;-64
2022/07/17 13:29:24;;;;;;;0.52;0.52;;;27.00;81.70;28.10;102603.00;;;;5089968;28;20177;-64
2022/07/17 13:32:29;;;;;;;1.85;0.75;;;27.20;81.90;28.10;102599.00;;;;5089438;28;20216;-64
2022/07/17 13:35:48;;;;;;;0.10;0.10;;;27.00;80.70;28.10;102602.00;;;;5089578;28;20549;-64
2022/07/17 13:38:49;;;;;;;0.40;0.40;;;27.30;79.20;28.50;102602.00;;;;5089718;28;20537;-64
2022/07/17 13:41:50;;;;;;;0.10;0.10;;;27.30;80.50;28.90;102600.00;;;;5089461;28;20231;-64
2022/07/17 13:44:54;;;;;;;0.20;0.20;;;27.60;79.90;28.20;102591.00;;;;5089447;28;20177;-64
2022/07/17 13:48:00;;;;;;;0.63;0.63;;;27.60;79.20;28.60;102589.00;;;;5073869;28;20196;-64
2022/07/17 13:50:51;;;;;;;0.75;0.75;;;27.40;79.00;28.60;102594.00;;;;5073777;28;20185;-64
2022/07/17 13:53:40;;;;;;;0.80;0.80;;;27.60;79.90;28.30;102586.00;;;;5073886;28;20190;-65
2022/07/17 13:57:02;;;;;;;0.10;0.10;;;27.50;79.90;28.00;102577.00;;;;5089517;28;20186;-65
2022/07/17 14:00:07;;;;;;;0.15;0.13;;;27.40;79.80;27.20;102588.00;;;;5072393;28;20203;-65
2022/07/17 14:03:11;;;;;;;0.30;0.30;;;26.90;78.50;27.80;102583.00;;;;5089312;28;20192;-65
2022/07/17 14:06:13;;;;;;;0.63;0.63;;;26.80;78.90;27.90;102570.00;;;;5089009;28;20276;-65
2022/07/17 14:09:17;;;;;;;0.32;0.32;;;27.00;79.50;28.40;102543.00;;;;5072437;28;20575;-65
2022/07/17 14:12:18;;;;;;;0.68;0.50;;;27.20;78.50;28.30;102570.00;;;;5089214;28;20204;-65